EmailTwitter


Surface observations / Quebec / CYUL (71627)

Regions: Quebec | Canada | USA | Europe | France | UK | Elsewhere
Station
Display
Info & Location for CYUL (71627) | Help decoding METAR

Weather Conditions observed on 2017/06/24 at 12:00 UTC at MONTREAL INTL A, QB (CYUL)

Sky conditions: overcast.

Temperature: 19.0 Celsius.

Dewpoint: 16.0 Celsius.

Relative Humidity: 83%

Humidex: 24.

Winds: West at 9 km/h or 5 knots.

Mean Sea level Pressure: 100.02 kilopascals.

Altimeter Setting (QNH): 100.00 kilopascals or 29.53 inches of mercury.

Horizontal visibility: 15.00 statute miles or 24.00 kilometers.

Height of the Ceiling: 5182 metres ( 17000 feet ).

Coded METAR:

CYUL 241200Z 27005KT 15SM FEW020 OVC170 19/16 A2953 RMK CF1AC8 CF TR SLP002

DENSITY ALT 1100FT=